Time;durP1;ratioP1;P1;durP2;ratioP2;P2;SDS_P1;SDS_P2;PMS_P1;PMS_P2;Temp;Humidity;BMP_temperature;BMP_pressure;BME280_temperature;BME280_humidity;BME280_pressure;Samples;Min_cycle;Max_cycle;Signal;HPM_P1;HPM_P2
2022/09/11 00:01:00;;;;;;;14.75;6.22;;;;;;;15.80;80.80;101909.41;5055998;27;116914;-29
2022/09/11 00:03:26;;;;;;;13.63;6.28;;;;;;;15.79;80.68;101904.94;5056234;27;101684;-29
2022/09/11 00:05:52;;;;;;;18.13;6.85;;;;;;;15.80;80.79;101910.31;5056454;27;96884;-29
2022/09/11 00:08:20;;;;;;;13.77;6.80;;;;;;;15.79;80.98;101911.28;5056188;27;99766;-29
2022/09/11 00:10:47;;;;;;;15.20;6.88;;;;;;;15.80;81.26;101913.06;5056544;27;97965;-29
2022/09/11 00:13:20;;;;;;;14.48;6.32;;;;;;;15.77;81.64;101913.22;5056272;27;96616;-32
2022/09/11 00:15:46;;;;;;;15.55;6.82;;;;;;;15.77;80.93;101917.84;5038049;27;96917;-29
2022/09/11 00:18:13;;;;;;;13.63;5.85;;;;;;;15.78;81.44;101911.38;5037344;27;101104;-29
2022/09/11 00:20:45;;;;;;;13.07;6.22;;;;;;;15.74;81.32;101905.25;5037439;27;100818;-30
2022/09/11 00:23:11;;;;;;;21.42;7.70;;;;;;;15.73;81.36;101899.88;5038066;27;96561;-30
2022/09/11 00:25:39;;;;;;;15.20;7.18;;;;;;;15.73;81.25;101908.06;5056170;27;96856;-29
2022/09/11 00:28:06;;;;;;;11.85;5.65;;;;;;;15.68;81.41;101902.88;5055677;27;99368;-29
2022/09/11 00:30:32;;;;;;;14.77;6.85;;;;;;;15.69;81.45;101905.53;5037133;27;100896;-30
2022/09/11 00:32:57;;;;;;;12.00;6.25;;;;;;;15.67;81.26;101910.22;5038334;27;96638;-29
2022/09/11 00:35:23;;;;;;;12.50;5.72;;;;;;;15.65;81.63;101912.16;5056728;27;96786;-29
2022/09/11 00:37:49;;;;;;;15.02;6.65;;;;;;;15.62;81.26;101900.56;5055835;27;99680;-29
2022/09/11 00:40:16;;;;;;;18.92;7.18;;;;;;;15.65;81.22;101912.16;5055836;27;99200;-29
2022/09/11 00:42:41;;;;;;;14.13;6.15;;;;;;;15.65;81.49;101914.03;5037292;27;96898;-30
2022/09/11 00:45:16;;;;;;;11.00;5.75;;;;;;;15.65;81.49;101914.88;5056206;27;96747;-29
2022/09/11 00:47:42;;;;;;;13.48;6.80;;;;;;;15.63;81.66;101911.38;5037357;27;101363;-29
2022/09/11 00:50:16;;;;;;;14.18;6.75;;;;;;;15.60;82.03;101908.84;5037423;27;101346;-29
2022/09/11 00:52:49;;;;;;;10.93;5.55;;;;;;;15.60;82.04;101903.41;5055899;27;96607;-31
2022/09/11 00:55:17;;;;;;;16.23;6.45;;;;;;;15.58;82.19;101909.94;5037443;27;96820;-29
2022/09/11 00:57:52;;;;;;;11.45;6.15;;;;;;;15.56;81.66;101910.03;5055507;27;97544;-29
2022/09/11 01:00:18;;;;;;;14.38;6.30;;;;;;;15.54;81.65;101912.00;5037739;27;101529;-29
2022/09/11 01:02:46;;;;;;;11.48;5.40;;;;;;;15.52;81.84;101913.97;5055933;27;96492;-29
2022/09/11 01:05:15;;;;;;;13.25;6.28;;;;;;;15.49;81.67;101904.13;5037286;27;96804;-30
2022/09/11 01:07:42;;;;;;;11.63;5.55;;;;;;;15.46;81.79;101903.44;5036345;27;100969;-32
2022/09/11 01:10:09;;;;;;;15.23;6.82;;;;;;;15.46;81.61;101908.88;5037077;27;100968;-31
2022/09/11 01:13:04;;;;;;;14.75;6.38;;;;;;;15.45;82.15;101909.88;5036881;27;97046;-30
2022/09/11 01:15:37;;;;;;;13.57;6.40;;;;;;;15.42;82.06;101902.75;5055182;27;96725;-29
2022/09/11 01:18:28;;;;;;;14.93;6.78;;;;;;;15.41;82.10;101905.59;5036822;27;98919;-29
2022/09/11 01:21:20;;;;;;;20.30;7.35;;;;;;;15.41;82.04;101909.19;5036757;27;100671;-29
2022/09/11 01:23:59;;;;;;;12.70;6.28;;;;;;;15.40;82.02;101912.03;5055802;27;96579;-29
2022/09/11 01:26:39;;;;;;;14.38;6.50;;;;;;;15.40;82.05;101912.03;5037584;27;96999;-29
2022/09/11 01:29:25;;;;;;;17.08;5.95;;;;;;;15.42;82.14;101912.78;5055371;27;97439;-30
2022/09/11 01:32:03;;;;;;;14.38;6.00;;;;;;;15.42;81.52;101912.78;5054168;27;97983;-31
2022/09/11 01:35:11;;;;;;;17.48;6.50;;;;;;;15.43;81.99;101918.16;5036420;27;96649;-29
2022/09/11 01:38:07;;;;;;;15.85;6.68;;;;;;;15.45;82.47;101913.47;5035789;27;96703;-29
2022/09/11 01:40:50;;;;;;;16.33;6.32;;;;;;;15.44;82.26;101916.28;5052921;27;101300;-30
2022/09/11 01:43:21;;;;;;;15.88;6.63;;;;;;;15.41;82.54;101911.91;5035735;27;98922;-31
2022/09/11 01:45:50;;;;;;;16.25;7.63;;;;;;;15.37;82.76;101914.94;5055270;27;96621;-30
2022/09/11 01:48:22;;;;;;;18.38;6.97;;;;;;;15.39;83.08;101921.19;5036987;27;96846;-29
2022/09/11 01:50:49;;;;;;;;;;;;;;;15.37;83.35;101912.22;5053773;27;100976;-29
2022/09/11 01:53:20;;;;;;;12.70;5.72;;;;;;;15.31;82.46;101902.56;5036905;27;100211;-29
2022/09/11 01:56:01;;;;;;;13.35;6.43;;;;;;;15.31;82.39;101905.31;5036636;27;96582;-29
2022/09/11 01:58:29;;;;;;;19.52;7.07;;;;;;;15.31;82.53;101898.97;5055062;27;96751;-29
2022/09/11 02:01:06;;;;;;;14.90;6.47;;;;;;;15.27;82.74;101895.56;5035885;27;100932;-29
2022/09/11 02:03:38;;;;;;;20.48;8.07;;;;;;;15.27;82.83;101910.06;5036212;27;100579;-29
2022/09/11 02:06:05;;;;;;;;;;;;;;;15.26;83.34;101902.00;5036917;27;96687;-30
2022/09/11 02:08:39;;;;;;;11.63;5.75;;;;;;;15.22;82.66;101906.75;5036691;27;96843;-29
2022/09/11 02:11:08;;;;;;;24.40;6.95;;;;;;;15.19;82.98;101908.81;5036385;27;101356;-29
2022/09/11 02:13:39;;;;;;;13.90;6.28;;;;;;;15.17;82.47;101913.50;5035727;27;100538;-30
2022/09/11 02:16:10;;;;;;;;;;;;;;;15.19;83.19;101917.00;5053208;27;96862;-31
2022/09/11 02:19:24;;;;;;;13.30;5.95;;;;;;;15.17;82.86;101929.88;5055325;27;96713;-29
2022/09/11 02:21:50;;;;;;;13.77;5.93;;;;;;;15.10;82.79;101923.94;4971222;28;99872;-29
2022/09/11 02:24:17;;;;;;;14.45;6.07;;;;;;;15.11;82.72;101913.88;4972031;28;97479;-29
2022/09/11 02:26:57;;;;;;;14.82;6.63;;;;;;;15.11;82.97;101917.50;4998355;27;96812;-31
2022/09/11 02:29:23;;;;;;;17.35;7.00;;;;;;;15.11;82.76;101925.69;5054485;27;96759;-29
2022/09/11 02:31:51;;;;;;;14.00;6.70;;;;;;;15.09;82.75;101927.66;5036033;27;101183;-29
2022/09/11 02:34:20;;;;;;;19.88;7.70;;;;;;;15.08;82.70;101925.88;5035679;27;101313;-29
2022/09/11 02:36:57;;;;;;;18.00;6.95;;;;;;;15.04;83.00;101936.13;5036238;27;96545;-29
2022/09/11 02:39:25;;;;;;;17.60;7.78;;;;;;;15.02;83.03;101929.00;5036100;27;96716;-30
2022/09/11 02:41:59;;;;;;;18.63;7.78;;;;;;;15.02;83.16;101937.19;5054503;27;97572;-29
2022/09/11 02:44:39;;;;;;;19.52;7.32;;;;;;;14.97;83.15;101923.84;5053198;27;100852;-30
2022/09/11 02:47:24;;;;;;;21.08;7.45;;;;;;;14.99;82.96;101937.38;5036175;27;96451;-29
2022/09/11 02:50:17;;;;;;;17.75;6.68;;;;;;;14.99;83.11;101938.25;5036157;27;96887;-29
2022/09/11 02:52:43;;;;;;;15.45;6.38;;;;;;;14.98;82.56;101935.63;5054019;27;97494;-30
2022/09/11 02:55:44;;;;;;;16.50;6.20;;;;;;;14.98;82.96;101941.94;5039031;27;100992;-31
2022/09/11 02:58:16;;;;;;;16.27;7.93;;;;;;;14.97;83.09;101950.22;5053440;27;96753;-29
2022/09/11 03:00:42;;;;;;;17.77;6.65;;;;;;;14.93;82.72;101935.91;5058127;27;96884;-29
2022/09/11 03:03:07;;;;;;;18.70;7.38;;;;;;;14.88;82.66;101931.72;5057465;27;97463;-29
2022/09/11 03:05:32;;;;;;;16.15;6.82;;;;;;;14.91;82.73;101934.25;5056971;27;109793;-30
2022/09/11 03:07:58;;;;;;;13.98;7.18;;;;;;;14.89;82.70;101937.06;5057575;27;96562;-30
2022/09/11 03:10:26;;;;;;;19.85;7.05;;;;;;;14.89;82.77;101936.19;5057830;27;96950;-29
2022/09/11 03:12:53;;;;;;;16.67;6.82;;;;;;;14.90;83.02;101940.66;5038379;27;100894;-29
2022/09/11 03:15:19;;;;;;;15.43;7.35;;;;;;;14.88;82.80;101937.19;5056775;27;97297;-29
2022/09/11 03:17:45;;;;;;;18.80;7.60;;;;;;;14.85;83.23;101936.38;5056874;27;96593;-29
2022/09/11 03:20:10;;;;;;;21.02;8.05;;;;;;;14.83;82.60;101938.34;5057292;27;96922;-30
2022/09/11 03:22:36;;;;;;;19.13;7.35;;;;;;;14.81;82.95;101937.53;5056935;27;97249;-29
2022/09/11 03:25:01;;;;;;;16.25;7.20;;;;;;;14.81;83.03;101942.13;5057210;27;97244;-29
2022/09/11 03:27:27;;;;;;;20.33;7.07;;;;;;;14.78;82.90;101940.47;5057392;27;96602;-29
2022/09/11 03:29:52;;;;;;;23.00;7.55;;;;;;;14.79;82.79;101942.22;5057221;27;96866;-29
2022/09/11 03:32:17;;;;;;;12.63;6.18;;;;;;;14.78;83.08;101943.19;5056615;27;99269;-29
2022/09/11 03:34:43;;;;;;;16.48;6.68;;;;;;;14.76;82.96;101947.88;5057467;27;98090;-30
2022/09/11 03:37:08;;;;;;;17.52;6.97;;;;;;;14.77;82.88;101948.75;5057240;27;96602;-29
2022/09/11 03:39:34;;;;;;;13.75;6.22;;;;;;;14.76;82.43;101952.44;5057272;27;96794;-29
2022/09/11 03:41:59;;;;;;;15.57;6.40;;;;;;;14.75;82.87;101943.38;5056127;27;97594;-30
2022/09/11 03:44:26;;;;;;;13.63;6.35;;;;;;;14.74;83.06;101943.47;5038358;27;100771;-30
2022/09/11 03:46:51;;;;;;;18.17;7.18;;;;;;;14.71;83.26;101936.38;5056841;27;96550;-29
2022/09/11 03:49:17;;;;;;;16.83;6.70;;;;;;;14.71;82.85;101938.22;5057125;27;96760;-30
2022/09/11 03:51:42;;;;;;;17.80;7.28;;;;;;;14.67;83.52;101939.38;5056744;27;97627;-29
2022/09/11 03:54:08;;;;;;;14.25;6.95;;;;;;;14.69;82.79;101940.16;5056676;27;97262;-30
2022/09/11 03:56:34;;;;;;;15.65;6.78;;;;;;;14.64;82.92;101935.00;5056806;27;96820;-29
2022/09/11 03:58:59;;;;;;;16.88;6.68;;;;;;;14.67;82.92;101944.84;5057734;27;96655;-30
2022/09/11 04:01:25;;;;;;;15.30;6.13;;;;;;;14.63;82.94;101930.50;5056543;27;97673;-30
2022/09/11 04:03:51;;;;;;;14.10;6.30;;;;;;;14.61;82.89;101932.44;5037854;27;100914;-31
2022/09/11 04:06:17;;;;;;;17.65;7.53;;;;;;;14.58;82.91;101941.69;5037077;27;96627;-30
2022/09/11 04:08:42;;;;;;;15.90;6.32;;;;;;;14.57;83.47;101947.25;5056465;27;96849;-29
2022/09/11 04:11:10;;;;;;;13.75;6.40;;;;;;;14.56;83.34;101954.56;5056094;27;97973;-29
2022/09/11 04:13:37;;;;;;;16.52;6.50;;;;;;;14.55;83.21;101952.78;5055845;27;98114;-29
2022/09/11 04:16:10;;;;;;;13.38;5.93;;;;;;;14.52;83.14;101946.63;5056110;27;97287;-30
2022/09/11 04:18:37;;;;;;;15.73;6.10;;;;;;;14.51;83.23;101942.13;5038377;27;96712;-30
2022/09/11 04:21:07;;;;;;;13.35;5.22;;;;;;;14.49;83.35;101944.97;5037881;27;100676;-29
2022/09/11 04:23:33;;;;;;;13.18;6.18;;;;;;;14.48;83.11;101945.03;5038049;27;100590;-29
2022/09/11 04:25:59;;;;;;;15.00;6.72;;;;;;;14.49;83.32;101953.13;5037895;27;96567;-30
2022/09/11 04:28:27;;;;;;;12.57;5.97;;;;;;;14.48;83.27;101953.22;5056387;27;96798;-30
2022/09/11 04:30:53;;;;;;;16.38;7.40;;;;;;;14.42;83.25;101949.91;5037258;27;100993;-30
2022/09/11 04:33:18;;;;;;;15.20;6.18;;;;;;;14.43;83.41;101957.09;5055935;27;97491;-30
2022/09/11 04:35:44;;;;;;;14.40;6.13;;;;;;;14.41;83.20;101958.16;5055828;27;98019;-29
2022/09/11 04:38:09;;;;;;;18.13;7.10;;;;;;;14.42;83.29;101970.84;5055723;27;102057;-30
2022/09/11 04:40:34;;;;;;;16.25;6.60;;;;;;;14.38;82.96;101966.53;5055604;27;99985;-29
2022/09/11 04:43:01;;;;;;;13.52;6.85;;;;;;;14.34;83.15;101967.66;5055998;27;97753;-30
2022/09/11 04:45:32;;;;;;;16.05;6.40;;;;;;;14.36;83.25;101966.59;5037827;27;96567;-29
2022/09/11 04:47:57;;;;;;;14.93;6.35;;;;;;;14.33;83.54;101965.94;5038191;27;96726;-29
2022/09/11 04:50:23;;;;;;;15.57;6.53;;;;;;;14.30;83.24;101964.25;5054265;27;100749;-29
2022/09/11 04:52:48;;;;;;;14.13;6.57;;;;;;;14.27;83.26;101964.41;5055566;27;97225;-30
2022/09/11 04:55:13;;;;;;;14.15;6.03;;;;;;;14.26;82.97;101972.72;5055263;27;96502;-30
2022/09/11 04:57:39;;;;;;;11.98;5.82;;;;;;;14.27;83.21;101982.63;5055834;27;96849;-29
2022/09/11 05:00:05;;;;;;;12.43;5.78;;;;;;;14.28;83.17;101990.72;5055589;27;98004;-29
2022/09/11 05:02:31;;;;;;;18.77;6.05;;;;;;;14.26;83.45;101984.47;5037230;27;100918;-29
2022/09/11 05:04:57;;;;;;;12.50;6.32;;;;;;;14.24;83.27;101984.56;5055960;27;96675;-30
2022/09/11 05:07:24;;;;;;;15.00;6.70;;;;;;;14.22;83.17;101983.78;5055722;27;96803;-30
2022/09/11 05:09:53;;;;;;;17.63;6.78;;;;;;;14.21;83.30;101995.66;5036999;27;101230;-29
2022/09/11 05:12:19;;;;;;;14.13;6.00;;;;;;;14.22;83.28;102001.97;5055461;27;97407;-29
2022/09/11 05:14:45;;;;;;;11.55;5.00;;;;;;;14.20;83.86;102002.06;5036673;27;96753;-30
2022/09/11 05:17:12;;;;;;;11.23;5.40;;;;;;;14.16;83.82;101999.63;5055885;27;96621;-30
2022/09/11 05:19:37;;;;;;;15.27;5.70;;;;;;;14.15;83.72;101997.84;5036238;27;100869;-29
2022/09/11 05:22:03;;;;;;;14.52;5.80;;;;;;;14.17;83.99;102004.09;5055076;27;97942;-29
2022/09/11 05:24:28;;;;;;;11.23;5.75;;;;;;;14.16;83.54;102003.22;5055448;27;96729;-29
2022/09/11 05:26:53;;;;;;;13.93;6.18;;;;;;;14.16;83.40;102003.22;5055232;27;96773;-29
2022/09/11 05:29:19;;;;;;;15.98;6.22;;;;;;;14.17;83.62;102015.00;5054960;27;99774;-29
2022/09/11 05:31:44;;;;;;;12.18;6.28;;;;;;;14.17;83.42;102010.41;5055126;27;97833;-29
2022/09/11 05:34:10;;;;;;;14.88;6.30;;;;;;;14.17;83.43;102017.72;5055035;27;96478;-32
2022/09/11 05:36:35;;;;;;;13.43;6.28;;;;;;;14.19;83.57;102024.84;5055509;27;96825;-29
2022/09/11 05:39:02;;;;;;;16.25;6.00;;;;;;;14.19;83.49;102023.97;5054873;27;99310;-31
2022/09/11 05:41:27;;;;;;;10.35;4.80;;;;;;;14.18;83.73;102027.63;5053446;27;101154;-29
2022/09/11 05:43:53;;;;;;;13.63;6.15;;;;;;;14.20;83.80;102033.88;5054803;27;96613;-29
2022/09/11 05:46:20;;;;;;;14.85;6.68;;;;;;;14.21;83.44;102027.47;5053872;27;96902;-31
2022/09/11 05:48:45;;;;;;;18.45;7.20;;;;;;;14.24;83.50;102036.34;5036388;27;101007;-29
2022/09/11 05:51:15;;;;;;;21.23;7.55;;;;;;;14.25;83.52;102026.31;5054404;27;99111;-29
2022/09/11 05:53:41;;;;;;;18.17;6.38;;;;;;;14.30;83.64;102035.13;5036677;27;96615;-29
2022/09/11 05:56:16;;;;;;;16.42;7.00;;;;;;;14.31;83.74;102036.88;5053693;27;96907;-29
2022/09/11 05:58:43;;;;;;;19.45;7.30;;;;;;;14.34;83.79;102039.41;5054803;27;98013;-29
2022/09/11 06:01:11;;;;;;;19.95;7.72;;;;;;;14.36;84.06;102042.94;5036674;27;100978;-30
2022/09/11 06:03:37;;;;;;;18.77;7.35;;;;;;;14.37;84.11;102038.34;5036369;27;96738;-29
2022/09/11 06:06:05;;;;;;;19.83;8.20;;;;;;;14.38;83.82;102035.53;5036533;27;96971;-29
2022/09/11 06:08:32;;;;;;;17.33;7.30;;;;;;;14.39;83.91;102041.88;5035697;27;102075;-29
2022/09/11 06:10:57;;;;;;;21.80;8.23;;;;;;;14.44;84.17;102046.09;5053084;27;101483;-29
2022/09/11 06:13:32;;;;;;;21.13;7.65;;;;;;;14.45;84.01;102045.13;5054706;27;96875;-30
2022/09/11 06:15:58;;;;;;;19.98;6.72;;;;;;;14.49;84.03;102051.28;5054214;27;96829;-30
2022/09/11 06:18:24;;;;;;;19.25;7.70;;;;;;;14.53;83.57;102043.78;5036089;27;98976;-29
2022/09/11 06:21:00;;;;;;;16.27;7.70;;;;;;;14.59;83.80;102043.47;5054347;27;97799;-29
2022/09/11 06:23:26;;;;;;;15.93;6.85;;;;;;;14.63;83.07;102045.94;5053229;27;96748;-30
2022/09/11 06:25:55;;;;;;;22.58;8.15;;;;;;;14.74;83.25;102044.41;5055249;27;96779;-29
2022/09/11 06:28:22;;;;;;;18.25;7.20;;;;;;;14.80;83.01;102044.00;5037304;27;101102;-29
2022/09/11 06:30:49;;;;;;;18.25;7.65;;;;;;;14.88;82.88;102043.56;5039367;27;100822;-30
2022/09/11 06:33:14;;;;;;;20.60;7.45;;;;;;;14.98;82.70;102034.72;5039142;27;96633;-29
2022/09/11 06:35:39;;;;;;;22.90;8.75;;;;;;;15.08;82.33;102037.75;5058071;27;98464;-29
2022/09/11 06:38:05;;;;;;;25.10;8.30;;;;;;;15.18;82.16;102041.69;5057900;27;97921;-29
2022/09/11 06:40:30;;;;;;;19.95;8.18;;;;;;;15.33;81.57;102036.25;5057696;27;108150;-29
2022/09/11 06:42:57;;;;;;;23.60;8.70;;;;;;;15.45;81.72;102036.34;5057827;27;96615;-30
2022/09/11 06:45:23;;;;;;;26.25;10.20;;;;;;;15.61;81.60;102030.81;5039586;27;96892;-29
2022/09/11 06:47:49;;;;;;;28.60;9.85;;;;;;;15.74;81.46;102033.66;5039253;27;101376;-29
2022/09/11 06:50:14;;;;;;;28.70;9.50;;;;;;;15.95;81.52;102035.97;5057770;27;99857;-29
2022/09/11 06:52:41;;;;;;;24.83;9.88;;;;;;;16.12;81.13;102027.53;5058039;27;96657;-31
2022/09/11 06:55:12;;;;;;;31.27;9.73;;;;;;;16.26;80.76;102023.91;5057821;27;96808;-30
2022/09/11 06:57:39;;;;;;;30.77;9.98;;;;;;;16.45;80.53;102040.81;5055394;27;100880;-30
2022/09/11 07:00:06;;;;;;;26.40;9.73;;;;;;;16.60;80.29;102036.16;5056046;27;100967;-29
2022/09/11 07:02:31;;;;;;;28.15;10.30;;;;;;;16.81;79.92;102028.38;5039159;27;96601;-29
2022/09/11 07:04:56;;;;;;;27.60;10.25;;;;;;;17.04;79.50;102042.31;5057616;27;102152;-30
2022/09/11 07:07:22;;;;;;;24.17;10.20;;;;;;;17.17;79.08;102027.66;5056987;27;110270;-30
2022/09/11 07:09:47;;;;;;;24.48;10.05;;;;;;;17.36;78.96;102023.63;5057070;27;99217;-32
2022/09/11 07:12:12;;;;;;;27.65;10.85;;;;;;;17.54;78.91;102030.53;5057228;27;96568;-29
2022/09/11 07:14:38;;;;;;;23.65;9.05;;;;;;;17.71;77.79;102032.03;5057391;27;96989;-29
2022/09/11 07:17:03;;;;;;;26.70;11.15;;;;;;;17.82;77.87;102039.50;5057092;27;99343;-31
2022/09/11 07:19:29;;;;;;;27.20;11.10;;;;;;;17.97;77.75;102048.47;5057428;27;97848;-31
2022/09/11 07:21:54;;;;;;;25.67;10.45;;;;;;;18.12;77.28;102050.06;5056752;27;96501;-29
2022/09/11 07:24:19;;;;;;;29.13;9.50;;;;;;;18.27;76.76;102041.69;5057066;27;98390;-30
2022/09/11 07:26:45;;;;;;;25.55;9.63;;;;;;;18.40;77.13;102056.22;5039019;27;98200;-29
2022/09/11 07:29:11;;;;;;;28.73;11.32;;;;;;;18.51;76.92;102058.16;5056682;27;103646;-29
2022/09/11 07:31:37;;;;;;;29.92;9.85;;;;;;;18.61;76.27;102060.06;5039000;27;96553;-29
2022/09/11 07:34:03;;;;;;;24.33;10.10;;;;;;;18.74;76.13;102060.03;5057568;27;96905;-31
2022/09/11 07:36:34;;;;;;;23.60;9.50;;;;;;;18.85;75.94;102068.38;5057043;27;97358;-29
2022/09/11 07:39:00;;;;;;;19.67;8.80;;;;;;;18.99;75.50;102060.91;5038248;27;101075;-30
2022/09/11 07:41:26;;;;;;;21.20;8.93;;;;;;;19.08;75.29;102071.19;5056066;27;96584;-29
2022/09/11 07:44:02;;;;;;;26.33;9.80;;;;;;;19.19;75.39;102073.97;5038782;27;96827;-29
2022/09/11 07:46:30;;;;;;;23.85;9.13;;;;;;;19.31;74.91;102069.38;5056051;27;99439;-29
2022/09/11 07:48:55;;;;;;;21.52;9.45;;;;;;;19.41;74.31;102075.03;5055314;27;100373;-29
2022/09/11 07:51:21;;;;;;;25.27;9.90;;;;;;;19.47;74.47;102075.41;5056832;27;96604;-30
2022/09/11 07:53:51;;;;;;;22.70;9.25;;;;;;;19.61;73.68;102067.91;5056923;27;96804;-29
2022/09/11 07:56:22;;;;;;;27.38;8.82;;;;;;;19.74;73.75;102068.72;5038166;27;101243;-29
2022/09/11 07:58:48;;;;;;;27.20;9.27;;;;;;;19.78;73.62;102070.19;5038309;27;100901;-29
2022/09/11 08:01:15;;;;;;;19.92;8.10;;;;;;;;;;5038544;27;96683;-29
2022/09/11 08:03:43;;;;;;;20.08;8.88;;;;;;;19.93;73.31;102071.72;5057269;27;96584;-30
2022/09/11 08:06:16;;;;;;;18.98;8.18;;;;;;;19.97;73.19;102074.22;5037927;27;100973;-30
2022/09/11 08:08:42;;;;;;;24.52;8.20;;;;;;;19.90;73.03;102071.97;5056186;27;99236;-29
2022/09/11 08:11:10;;;;;;;19.48;7.88;;;;;;;19.81;73.34;102077.34;5038017;27;96696;-29
2022/09/11 08:13:36;;;;;;;19.35;8.30;;;;;;;19.76;73.81;102085.97;5037960;27;96746;-30
2022/09/11 08:16:02;;;;;;;19.98;7.25;;;;;;;19.59;74.29;102078.16;5037606;27;100964;-29
2022/09/11 08:18:27;;;;;;;18.33;8.02;;;;;;;19.45;74.52;102079.25;5056333;27;97853;-29
2022/09/11 08:20:53;;;;;;;19.98;8.65;;;;;;;19.57;74.11;102085.63;5037797;27;96758;-28
2022/09/11 08:23:20;;;;;;;20.85;8.05;;;;;;;19.78;73.92;102083.06;5056506;27;96739;-29
2022/09/11 08:25:46;;;;;;;21.83;7.82;;;;;;;19.90;73.30;102077.47;5055984;27;99429;-29
2022/09/11 08:28:11;;;;;;;19.73;7.30;;;;;;;20.00;71.96;102079.44;5056313;27;99203;-29
2022/09/11 08:30:37;;;;;;;14.50;7.40;;;;;;;20.04;72.48;102080.94;5038042;27;96534;-29
2022/09/11 08:33:05;;;;;;;15.70;6.40;;;;;;;19.88;72.59;102084.97;5056112;27;96822;-29
2022/09/11 08:35:31;;;;;;;15.23;6.18;;;;;;;19.74;72.98;102087.97;5053802;27;100965;-29
2022/09/11 08:37:57;;;;;;;15.32;6.00;;;;;;;19.75;72.80;102094.34;5037485;27;101247;-29
2022/09/11 08:40:22;;;;;;;15.23;6.22;;;;;;;19.75;72.23;102092.44;5056400;27;96496;-29
2022/09/11 08:42:51;;;;;;;19.75;7.00;;;;;;;19.79;73.01;102095.84;5056140;27;96869;-30
2022/09/11 08:45:19;;;;;;;19.95;6.28;;;;;;;19.74;73.27;102104.47;5037573;27;101359;-28
2022/09/11 08:47:54;;;;;;;14.45;6.30;;;;;;;19.61;73.15;102098.16;5037400;27;100717;-29
2022/09/11 08:50:41;;;;;;;14.35;6.35;;;;;;;19.62;73.40;102095.28;5037203;27;96658;-29
2022/09/11 08:53:17;;;;;;;20.48;6.65;;;;;;;19.62;73.34;102106.28;5056387;27;96658;-28
2022/09/11 08:55:55;;;;;;;19.02;6.70;;;;;;;19.52;73.41;102100.66;5055951;27;98045;-29
2022/09/11 08:58:49;;;;;;;18.27;8.05;;;;;;;19.57;73.31;102111.28;5037208;27;98924;-29
2022/09/11 09:01:37;;;;;;;13.20;6.28;;;;;;;19.61;73.16;102112.75;5037081;27;96756;-30
2022/09/11 09:04:49;;;;;;;23.88;7.53;;;;;;;19.71;73.19;102112.94;5056022;27;96581;-29
2022/09/11 09:07:21;;;;;;;16.95;6.72;;;;;;;19.80;72.40;102108.59;5055799;27;98131;-29
2022/09/11 09:09:56;;;;;;;;;;;;;;;19.86;72.94;102111.72;5055729;27;99388;-29
2022/09/11 09:13:02;;;;;;;12.98;5.07;;;;;;;19.92;72.23;102113.94;5037281;27;96779;-29
2022/09/11 09:15:41;;;;;;;13.68;5.13;;;;;;;20.02;72.09;102110.47;5054197;27;97343;-29
2022/09/11 09:18:33;;;;;;;10.02;4.57;;;;;;;20.09;70.46;102111.72;5055109;27;99269;-29
2022/09/11 09:21:11;;;;;;;11.57;5.35;;;;;;;20.08;71.16;102119.09;5055195;27;99426;-29
2022/09/11 09:23:47;;;;;;;13.13;5.60;;;;;;;20.30;71.06;102120.94;5037177;27;96563;-29
2022/09/11 09:26:17;;;;;;;9.60;4.85;;;;;;;20.38;70.20;102112.09;5055848;27;96640;-29
2022/09/11 09:28:49;;;;;;;10.05;4.55;;;;;;;20.55;69.47;102113.41;5036312;27;99048;-29
2022/09/11 09:31:27;;;;;;;15.57;5.13;;;;;;;20.86;68.49;102108.97;5055302;27;97876;-29
2022/09/11 09:34:14;;;;;;;11.82;5.15;;;;;;;21.14;66.82;102114.84;5055305;27;96590;-30
2022/09/11 09:36:49;;;;;;;12.18;6.05;;;;;;;21.45;67.82;102110.34;5053989;27;96696;-29
2022/09/11 09:39:16;;;;;;;13.50;5.13;;;;;;;21.78;66.63;102111.13;5036634;27;100821;-29
2022/09/11 09:41:52;;;;;;;8.55;4.60;;;;;;;22.08;65.69;102114.91;5036548;27;100844;-28
2022/09/11 09:44:45;;;;;;;8.93;4.35;;;;;;;22.40;63.77;102117.53;5053683;27;96621;-31
2022/09/11 09:47:12;;;;;;;7.00;3.40;;;;;;;22.59;64.25;102124.97;5054242;27;96706;-29
2022/09/11 09:49:38;;;;;;;5.85;3.28;;;;;;;22.81;63.50;102123.84;5036455;27;101932;-30
2022/09/11 09:52:17;;;;;;;8.13;3.75;;;;;;;23.01;61.08;102119.28;5036444;27;100935;-29
2022/09/11 09:54:52;;;;;;;10.55;3.65;;;;;;;23.17;61.13;102122.31;5036071;27;96649;-31
2022/09/11 09:57:18;;;;;;;6.22;3.85;;;;;;;23.40;60.87;102119.25;5036820;27;96705;-29
2022/09/11 09:59:51;;;;;;;8.00;3.45;;;;;;;23.58;60.84;102117.47;5054695;27;99359;-32
2022/09/11 10:02:48;;;;;;;12.05;3.65;;;;;;;23.78;59.52;102114.69;5036416;27;100837;-31
2022/09/11 10:05:33;;;;;;;7.53;3.88;;;;;;;23.92;57.90;102111.44;5057176;27;96871;-29
2022/09/11 10:08:04;;;;;;;7.20;3.60;;;;;;;24.09;59.95;102107.84;5058815;27;96837;-30
2022/09/11 10:10:33;;;;;;;7.07;3.92;;;;;;;24.26;58.56;102110.84;5040089;27;101133;-29
2022/09/11 10:13:07;;;;;;;7.57;3.65;;;;;;;24.44;56.51;102105.38;5040004;27;100984;-30
2022/09/11 10:15:38;;;;;;;9.15;3.65;;;;;;;24.51;58.26;102101.00;5039872;27;96784;-29
2022/09/11 10:18:31;;;;;;;6.72;3.67;;;;;;;24.73;56.79;102100.53;5058721;27;96492;-30
2022/09/11 10:21:20;;;;;;;7.18;3.10;;;;;;;24.83;56.45;102092.13;5057487;27;97452;-29
2022/09/11 10:23:49;;;;;;;6.90;3.35;;;;;;;24.89;55.43;102094.28;5056655;27;100813;-29
2022/09/11 10:26:44;;;;;;;9.07;3.90;;;;;;;24.79;54.57;102104.59;5058219;27;96631;-29
2022/09/11 10:29:25;;;;;;;9.55;3.58;;;;;;;24.51;56.56;102101.00;5058225;27;96714;-29
2022/09/11 10:32:02;;;;;;;4.53;2.92;;;;;;;24.63;57.44;102105.28;5058565;27;97369;-29
2022/09/11 10:34:34;;;;;;;7.78;3.75;;;;;;;24.80;56.34;102098.88;5057593;27;97851;-30
2022/09/11 10:37:12;;;;;;;10.18;3.72;;;;;;;25.04;55.03;102100.16;5058331;27;96481;-29
2022/09/11 10:39:40;;;;;;;11.00;3.78;;;;;;;25.06;56.34;102095.31;5058344;27;96824;-30
2022/09/11 10:42:27;;;;;;;6.07;3.33;;;;;;;24.89;54.81;102105.38;5057671;27;98875;-29
2022/09/11 10:45:00;;;;;;;8.80;3.65;;;;;;;25.03;54.88;102095.66;5057802;27;97242;-29
2022/09/11 10:47:29;;;;;;;10.40;3.33;;;;;;;24.79;57.45;102097.16;5039332;27;96470;-30
2022/09/11 10:50:16;;;;;;;18.77;4.18;;;;;;;24.73;55.84;102094.13;5039561;27;96694;-30
2022/09/11 10:52:56;;;;;;;11.98;3.47;;;;;;;24.84;56.50;102101.31;5057907;27;97388;-29
2022/09/11 10:55:28;;;;;;;9.23;3.85;;;;;;;24.75;55.86;102081.84;5057462;27;97892;-29
2022/09/11 10:57:54;;;;;;;;;;;;;;;24.98;56.79;102092.47;5040016;27;96617;-29
2022/09/11 11:00:29;;;;;;;6.75;3.03;;;;;;;24.83;56.66;102094.03;5057689;27;96904;-29
2022/09/11 11:03:05;;;;;;;5.32;3.30;;;;;;;24.51;56.20;102087.13;5039121;27;101134;-29
2022/09/11 11:06:02;;;;;;;9.63;3.38;;;;;;;24.07;57.08;102092.44;5039344;27;100955;-30
2022/09/11 11:08:46;;;;;;;7.85;3.30;;;;;;;23.66;57.82;102092.69;5056413;27;96623;-29
2022/09/11 11:11:27;;;;;;;8.60;3.42;;;;;;;23.58;58.75;102094.47;5058001;27;96652;-29
2022/09/11 11:14:20;;;;;;;10.03;3.43;;;;;;;23.94;57.37;102093.66;5037894;27;101080;-29
2022/09/11 11:16:58;;;;;;;6.18;3.58;;;;;;;24.37;56.85;102086.59;5038467;27;99700;-29
2022/09/11 11:19:37;;;;;;;10.43;3.60;;;;;;;24.64;56.00;102087.59;5039187;27;97287;-31
2022/09/11 11:22:05;;;;;;;4.72;2.75;;;;;;;24.96;55.12;102084.31;5038969;27;96817;-29
2022/09/11 11:24:37;;;;;;;8.07;3.65;;;;;;;25.21;54.29;102087.31;5057198;27;98055;-29
2022/09/11 11:27:43;;;;;;;6.95;3.03;;;;;;;25.39;53.89;102079.84;5057285;27;97766;-29
2022/09/11 11:30:19;;;;;;;7.20;3.28;;;;;;;25.49;54.17;102073.34;5038991;27;96650;-29
2022/09/11 11:33:04;;;;;;;7.50;3.60;;;;;;;25.61;53.93;102077.56;5039287;27;96713;-29
2022/09/11 11:35:45;;;;;;;5.15;2.67;;;;;;;25.69;53.43;102073.97;5038590;27;99133;-30